createdAt,value
2017-09-04T00:00:16.617Z,93.5
2017-09-04T00:01:17.269Z,92.6
2017-09-04T00:02:18.024Z,93.4
2017-09-04T00:03:18.977Z,93.7
2017-09-04T00:04:19.630Z,92.7
2017-09-04T00:05:20.282Z,92.7
2017-09-04T00:06:20.936Z,93.2
2017-09-04T00:07:21.591Z,93.7
2017-09-04T00:08:22.493Z,93.9
2017-09-04T00:09:23.145Z,93.6
2017-09-04T00:10:23.802Z,93.6
2017-09-04T00:11:24.455Z,93.4
2017-09-04T00:12:25.109Z,93.9
2017-09-04T00:13:26.065Z,94.0
2017-09-04T00:14:26.717Z,93.8
2017-09-04T00:15:27.370Z,93.9
2017-09-04T00:16:28.022Z,94.7
2017-09-04T00:17:28.677Z,94.7
2017-09-04T00:18:29.585Z,94.8
2017-09-04T00:19:30.236Z,94.5
2017-09-04T00:20:30.891Z,95.1
2017-09-04T00:21:31.553Z,94.5
2017-09-04T00:22:32.233Z,94.8
2017-09-04T00:23:33.139Z,95.5
2017-09-04T00:24:33.792Z,95.5
2017-09-04T00:25:34.446Z,95.7
2017-09-04T00:26:35.103Z,95.9
2017-09-04T00:27:35.757Z,96.1
2017-09-04T00:28:36.709Z,95.9
2017-09-04T00:29:37.398Z,95.6
2017-09-04T00:30:38.050Z,95.7
2017-09-04T00:31:38.706Z,95.7
2017-09-04T00:32:39.361Z,95.7
2017-09-04T00:33:40.263Z,95.2
2017-09-04T00:34:40.915Z,95.4
2017-09-04T00:35:41.568Z,95.0
2017-09-04T00:36:42.223Z,94.9
2017-09-04T00:37:42.875Z,94.5
2017-09-04T00:38:43.779Z,94.8
2017-09-04T00:39:44.434Z,93.9
2017-09-04T00:40:45.087Z,94.2
2017-09-04T00:41:45.740Z,93.9
2017-09-04T00:42:46.394Z,94.2
2017-09-04T00:43:47.346Z,94.2
2017-09-04T00:44:48.001Z,94.0
2017-09-04T00:45:48.654Z,93.8
2017-09-04T00:46:49.309Z,94.2
2017-09-04T00:47:49.962Z,93.9
2017-09-04T00:48:50.902Z,94.4
2017-09-04T00:49:51.554Z,93.8
2017-09-04T00:50:52.208Z,94.6
2017-09-04T00:51:52.860Z,94.6
2017-09-04T00:52:53.515Z,95.2
2017-09-04T00:53:54.419Z,94.6
2017-09-04T00:54:55.071Z,94.9
2017-09-04T00:55:55.728Z,94.7
2017-09-04T00:56:56.386Z,94.6
2017-09-04T00:57:57.041Z,95.1
2017-09-04T00:58:57.995Z,94.8
2017-09-04T00:59:58.649Z,95.1
2017-09-04T01:00:59.302Z,94.6
2017-09-04T01:01:59.955Z,94.6
2017-09-04T01:03:00.608Z,94.4
2017-09-04T01:04:01.546Z,94.7
2017-09-04T01:05:02.199Z,94.8
2017-09-04T01:06:02.853Z,94.7
2017-09-04T01:07:03.506Z,94.7
2017-09-04T01:08:04.164Z,94.6
2017-09-04T01:09:05.114Z,94.7
2017-09-04T01:10:05.767Z,94.4
2017-09-04T01:11:06.422Z,94.8
2017-09-04T01:12:07.110Z,94.6
2017-09-04T01:13:07.763Z,95.6
2017-09-04T01:14:08.670Z,95.6
2017-09-04T01:15:09.323Z,96.3
2017-09-04T01:16:09.976Z,96.2
2017-09-04T01:17:10.628Z,96.8
2017-09-04T01:18:11.282Z,96.7
2017-09-04T01:19:12.243Z,96.7
2017-09-04T01:20:12.895Z,97.3
2017-09-04T01:21:13.548Z,97.0
2017-09-04T01:22:14.200Z,97.0
2017-09-04T01:23:14.854Z,97.1
2017-09-04T01:24:15.829Z,98.3
2017-09-04T01:25:16.483Z,97.7
2017-09-04T01:26:17.136Z,98.8
2017-09-04T01:27:17.789Z,98.7
2017-09-04T01:28:18.445Z,98.3
2017-09-04T01:29:19.350Z,97.6
2017-09-04T01:30:20.002Z,97.9
2017-09-04T01:31:20.652Z,97.8
2017-09-04T01:32:21.305Z,97.9
2017-09-04T01:33:21.956Z,98.6
2017-09-04T01:34:22.909Z,99.4
2017-09-04T01:35:23.560Z,99.4
2017-09-04T01:36:24.213Z,99.2
2017-09-04T01:37:24.865Z,99.9
2017-09-04T01:38:25.518Z,100.0
2017-09-04T01:39:26.505Z,100.0
2017-09-04T01:40:27.157Z,99.8
2017-09-04T01:41:27.808Z,99.8
2017-09-04T01:42:28.460Z,99.9
2017-09-04T01:43:29.113Z,100.0
2017-09-04T01:44:30.017Z,100.0
2017-09-04T01:45:30.669Z,100.0
2017-09-04T01:46:31.322Z,100.0
2017-09-04T01:47:31.974Z,100.0
2017-09-04T01:48:32.628Z,100.0
2017-09-04T01:49:33.580Z,100.0
2017-09-04T01:50:34.244Z,100.0
2017-09-04T01:51:34.898Z,100.0
2017-09-04T01:52:35.552Z,100.0
2017-09-04T01:53:36.205Z,100.0
2017-09-04T01:54:37.159Z,100.0
2017-09-04T01:55:37.814Z,100.0
2017-09-04T01:56:38.465Z,100.0
2017-09-04T01:57:39.118Z,100.0
2017-09-04T01:58:39.773Z,100.0
2017-09-04T01:59:40.725Z,100.0
2017-09-04T02:00:41.384Z,100.0
2017-09-04T02:01:42.031Z,100.0
2017-09-04T02:02:42.683Z,100.0
2017-09-04T02:03:43.334Z,100.0
2017-09-04T02:04:44.238Z,100.0
2017-09-04T02:05:44.892Z,100.0
2017-09-04T02:06:45.544Z,100.0
2017-09-04T02:07:46.197Z,100.0
2017-09-04T02:08:46.852Z,100.0
2017-09-04T02:09:47.754Z,100.0
2017-09-04T02:10:48.406Z,100.0
2017-09-04T02:11:49.061Z,100.0
2017-09-04T02:12:49.712Z,100.0
2017-09-04T02:13:50.371Z,100.0
2017-09-04T02:14:51.319Z,100.0
2017-09-04T02:15:51.971Z,100.0
2017-09-04T02:16:52.624Z,100.0
2017-09-04T02:17:53.275Z,100.0
2017-09-04T02:18:53.930Z,100.0
2017-09-04T02:19:54.882Z,100.0
2017-09-04T02:20:55.541Z,100.0
2017-09-04T02:21:56.194Z,100.0
2017-09-04T02:22:56.848Z,100.0
2017-09-04T02:23:57.502Z,100.0
2017-09-04T02:24:58.404Z,100.0
2017-09-04T02:25:59.058Z,100.0
2017-09-04T02:26:59.710Z,100.0
2017-09-04T02:28:00.363Z,100.0
2017-09-04T02:29:01.018Z,100.0
2017-09-04T02:30:01.955Z,100.0
2017-09-04T02:31:02.608Z,100.0
2017-09-04T02:32:03.261Z,100.0
2017-09-04T02:33:03.912Z,100.0
2017-09-04T02:34:04.570Z,100.0
2017-09-04T02:35:05.525Z,100.0
2017-09-04T02:36:06.178Z,100.0
2017-09-04T02:37:06.833Z,100.0
2017-09-04T02:38:07.483Z,99.9
2017-09-04T02:39:08.137Z,100.0
2017-09-04T02:40:09.038Z,100.0
2017-09-04T02:41:09.690Z,99.9
2017-09-04T02:42:10.345Z,99.4
2017-09-04T02:43:10.995Z,99.4
2017-09-04T02:44:11.648Z,100.0
2017-09-04T02:45:12.550Z,99.0
2017-09-04T02:46:13.211Z,99.6
2017-09-04T02:47:13.862Z,99.5
2017-09-04T02:48:14.526Z,99.2
2017-09-04T02:49:15.167Z,98.5
2017-09-04T02:50:16.068Z,98.8
2017-09-04T02:51:16.720Z,98.7
2017-09-04T02:52:17.371Z,98.3
2017-09-04T02:53:18.022Z,98.5
2017-09-04T02:54:18.674Z,98.5
2017-09-04T02:55:19.637Z,97.8
2017-09-04T02:56:20.277Z,97.8
2017-09-04T02:57:20.928Z,97.7
2017-09-04T02:58:21.582Z,97.6
2017-09-04T02:59:22.233Z,97.9
2017-09-04T03:00:23.135Z,97.7
2017-09-04T03:01:23.788Z,97.9
2017-09-04T03:02:24.439Z,97.4
2017-09-04T03:03:25.091Z,97.4
2017-09-04T03:04:25.744Z,97.6
2017-09-04T03:05:26.696Z,97.4
2017-09-04T03:06:27.350Z,97.1
2017-09-04T03:07:28.003Z,97.4
2017-09-04T03:08:28.653Z,96.7
2017-09-04T03:09:29.306Z,97.1
2017-09-04T03:10:30.208Z,97.0
2017-09-04T03:11:30.858Z,96.9
2017-09-04T03:12:31.511Z,96.9
2017-09-04T03:13:32.164Z,97.1
2017-09-04T03:14:32.816Z,96.7
2017-09-04T03:15:33.768Z,97.4
2017-09-04T03:16:34.419Z,97.0
2017-09-04T03:17:35.071Z,96.9
2017-09-04T03:18:35.724Z,97.0
2017-09-04T03:19:36.376Z,97.3
2017-09-04T03:20:37.279Z,97.4
2017-09-04T03:21:37.931Z,97.1
2017-09-04T03:22:38.581Z,97.6
2017-09-04T03:23:39.233Z,97.2
2017-09-04T03:24:39.886Z,97.3
2017-09-04T03:25:40.790Z,96.9
2017-09-04T03:26:41.439Z,97.1
2017-09-04T03:27:42.092Z,97.2
2017-09-04T03:28:42.743Z,98.1
2017-09-04T03:29:43.394Z,97.7
2017-09-04T03:30:44.347Z,97.8
2017-09-04T03:31:44.997Z,97.7
2017-09-04T03:32:45.650Z,97.7
2017-09-04T03:33:46.301Z,97.5
2017-09-04T03:34:46.953Z,97.7
2017-09-04T03:35:47.907Z,97.8
2017-09-04T03:36:48.558Z,97.4
2017-09-04T03:37:49.216Z,97.1
2017-09-04T03:38:49.868Z,97.1
2017-09-04T03:39:50.521Z,97.4
2017-09-04T03:40:51.473Z,96.9
2017-09-04T03:41:52.126Z,97.1
2017-09-04T03:42:52.779Z,96.7
2017-09-04T03:43:53.430Z,97.0
2017-09-04T03:44:54.081Z,97.1
2017-09-04T03:45:55.035Z,96.8
2017-09-04T03:46:55.688Z,96.9
2017-09-04T03:47:56.340Z,97.0
2017-09-04T03:48:56.991Z,97.4
2017-09-04T03:49:57.644Z,97.0
2017-09-04T03:50:58.544Z,97.0
2017-09-04T03:51:59.196Z,96.7
2017-09-04T03:52:59.848Z,97.1
2017-09-04T03:54:00.500Z,96.7
2017-09-04T03:55:01.152Z,96.9
2017-09-04T03:56:02.104Z,97.1
2017-09-04T03:57:02.755Z,97.9
2017-09-04T03:58:03.405Z,97.1
2017-09-04T03:59:04.058Z,97.1
2017-09-04T04:00:04.710Z,97.4
2017-09-04T04:01:05.662Z,97.5
2017-09-04T04:02:06.314Z,97.2
2017-09-04T04:03:06.974Z,97.3
2017-09-04T04:04:07.625Z,96.9
2017-09-04T04:05:08.276Z,97.1
2017-09-04T04:06:09.179Z,97.4
2017-09-04T04:07:09.831Z,97.3
2017-09-04T04:08:10.482Z,97.1
2017-09-04T04:09:11.133Z,97.2
2017-09-04T04:10:11.784Z,96.9
2017-09-04T04:11:12.687Z,97.1
2017-09-04T04:12:13.344Z,97.7
2017-09-04T04:13:13.990Z,97.7
2017-09-04T04:14:14.643Z,97.1
2017-09-04T04:15:15.295Z,97.2
2017-09-04T04:16:16.249Z,97.8
2017-09-04T04:17:16.901Z,98.0
2017-09-04T04:18:17.565Z,98.1
2017-09-04T04:19:18.208Z,98.2
2017-09-04T04:20:18.863Z,98.6
2017-09-04T04:21:19.816Z,98.5
2017-09-04T04:22:20.470Z,99.1
2017-09-04T04:23:21.124Z,98.8
2017-09-04T04:24:21.785Z,98.7
2017-09-04T04:25:22.436Z,98.3
2017-09-04T04:26:23.341Z,99.6
2017-09-04T04:27:24.032Z,98.9
2017-09-04T04:28:24.686Z,99.1
2017-09-04T04:29:25.341Z,99.0
2017-09-04T04:30:25.993Z,99.4
2017-09-04T04:31:26.949Z,99.4
2017-09-04T04:32:27.602Z,99.3
2017-09-04T04:33:28.258Z,98.9
2017-09-04T04:34:28.946Z,99.2
2017-09-04T04:35:29.600Z,99.9
2017-09-04T04:36:30.557Z,100.0
2017-09-04T04:37:31.211Z,100.0
2017-09-04T04:38:31.867Z,100.0
2017-09-04T04:39:32.523Z,100.0
2017-09-04T04:40:33.178Z,100.0
2017-09-04T04:41:34.935Z,100.0
2017-09-04T04:42:35.588Z,100.0
2017-09-04T04:43:36.244Z,100.0
2017-09-04T04:44:36.900Z,100.0
2017-09-04T04:45:37.555Z,100.0
2017-09-04T04:46:38.462Z,100.0
2017-09-04T04:47:39.119Z,100.0
2017-09-04T04:48:39.778Z,100.0
2017-09-04T04:49:40.434Z,100.0
2017-09-04T04:50:41.090Z,100.0
2017-09-04T04:51:41.996Z,100.0
2017-09-04T04:52:42.654Z,100.0
2017-09-04T04:53:43.344Z,100.0
2017-09-04T04:54:44.002Z,100.0
2017-09-04T04:55:44.662Z,100.0
2017-09-04T04:56:45.652Z,99.9
2017-09-04T04:57:46.326Z,100.0
2017-09-04T04:58:46.985Z,100.0
2017-09-04T04:59:47.642Z,100.0
2017-09-04T05:00:48.333Z,100.0
2017-09-04T05:01:49.290Z,100.0
2017-09-04T05:02:49.950Z,100.0
2017-09-04T05:03:50.610Z,100.0
2017-09-04T05:04:51.266Z,100.0
2017-09-04T05:05:51.923Z,99.9
2017-09-04T05:06:52.830Z,99.9
2017-09-04T05:07:53.490Z,100.0
2017-09-04T05:08:54.148Z,99.8
2017-09-04T05:09:54.805Z,100.0
2017-09-04T05:10:55.461Z,100.0
2017-09-04T05:11:56.419Z,100.0
2017-09-04T05:12:57.075Z,100.0
2017-09-04T05:13:57.735Z,100.0
2017-09-04T05:14:58.392Z,100.0
2017-09-04T05:15:59.049Z,100.0
2017-09-04T05:16:59.956Z,100.0
2017-09-04T05:18:00.612Z,99.6
2017-09-04T05:19:01.271Z,99.3
2017-09-04T05:20:01.926Z,99.4
2017-09-04T05:21:02.582Z,99.5
2017-09-04T05:22:03.539Z,99.3
2017-09-04T05:23:04.196Z,99.3
2017-09-04T05:24:04.853Z,99.2
2017-09-04T05:25:05.509Z,98.8
2017-09-04T05:26:06.165Z,99.1
2017-09-04T05:27:07.070Z,98.6
2017-09-04T05:28:07.729Z,99.3
2017-09-04T05:29:08.386Z,99.1
2017-09-04T05:30:09.042Z,99.4
2017-09-04T05:31:09.698Z,99.3
2017-09-04T05:32:10.605Z,99.1
2017-09-04T05:33:11.260Z,99.4
2017-09-04T05:34:11.916Z,99.5
2017-09-04T05:35:12.608Z,98.4
2017-09-04T05:36:13.266Z,98.6
2017-09-04T05:37:14.222Z,98.7
2017-09-04T05:38:14.878Z,98.7
2017-09-04T05:39:15.534Z,99.0
2017-09-04T05:40:16.190Z,98.3
2017-09-04T05:41:16.848Z,98.5
2017-09-04T05:42:17.790Z,98.5
2017-09-04T05:43:18.447Z,98.6
2017-09-04T05:44:19.104Z,98.6
2017-09-04T05:45:19.762Z,98.6
2017-09-04T05:46:20.417Z,98.6
2017-09-04T05:47:21.323Z,98.4
2017-09-04T05:48:21.983Z,98.6
2017-09-04T05:49:22.643Z,97.8
2017-09-04T05:50:23.297Z,97.7
2017-09-04T05:51:23.955Z,97.7
2017-09-04T05:52:24.911Z,97.9
2017-09-04T05:53:25.570Z,97.7
2017-09-04T05:54:26.229Z,97.6
2017-09-04T05:55:26.890Z,97.7
2017-09-04T05:56:27.542Z,98.0
2017-09-04T05:57:28.450Z,97.4
2017-09-04T05:58:29.110Z,97.0
2017-09-04T05:59:29.770Z,97.1
2017-09-04T06:00:30.427Z,97.1
2017-09-04T06:01:31.085Z,97.9
2017-09-04T06:02:32.046Z,97.3
2017-09-04T06:03:32.703Z,96.7
2017-09-04T06:04:33.363Z,96.8
2017-09-04T06:05:34.052Z,97.2
2017-09-04T06:06:34.710Z,96.7
2017-09-04T06:07:35.618Z,95.5
2017-09-04T06:08:36.279Z,95.6
2017-09-04T06:09:36.972Z,95.1
2017-09-04T06:10:37.631Z,94.0
2017-09-04T06:11:38.320Z,93.9
2017-09-04T06:12:39.196Z,93.6
2017-09-04T06:13:39.859Z,92.3
2017-09-04T06:14:40.511Z,92.3
2017-09-04T06:15:41.169Z,91.6
2017-09-04T06:16:41.826Z,91.5
2017-09-04T06:17:42.786Z,90.9
2017-09-04T06:18:43.445Z,91.1
2017-09-04T06:19:44.103Z,90.4
2017-09-04T06:20:44.760Z,90.5
2017-09-04T06:21:45.417Z,89.7
2017-09-04T06:22:46.327Z,90.1
2017-09-04T06:23:47.035Z,90.4
2017-09-04T06:24:47.694Z,89.7
2017-09-04T06:25:48.351Z,89.8
2017-09-04T06:26:49.010Z,90.2
2017-09-04T06:27:49.967Z,90.1
2017-09-04T06:28:50.629Z,89.8
2017-09-04T06:29:51.324Z,90.1
2017-09-04T06:30:51.982Z,89.9
2017-09-04T06:31:52.644Z,90.0
2017-09-04T06:32:53.548Z,89.8
2017-09-04T06:33:54.208Z,89.0
2017-09-04T06:34:54.866Z,89.1
2017-09-04T06:35:55.525Z,88.3
2017-09-04T06:36:56.185Z,87.9
2017-09-04T06:37:57.092Z,88.1
2017-09-04T06:38:57.753Z,87.2
2017-09-04T06:39:58.411Z,87.3
2017-09-04T06:40:59.070Z,87.5
2017-09-04T06:41:59.728Z,87.7
2017-09-04T06:43:00.684Z,87.9
2017-09-04T06:44:01.345Z,87.9
2017-09-04T06:45:02.003Z,87.1
2017-09-04T06:46:02.660Z,86.4
2017-09-04T06:47:03.320Z,86.5
2017-09-04T06:48:04.279Z,85.7
2017-09-04T06:49:04.937Z,85.5
2017-09-04T06:50:05.597Z,85.6
2017-09-04T06:51:06.254Z,85.5
2017-09-04T06:52:06.913Z,86.2
2017-09-04T06:53:07.822Z,86.0
2017-09-04T06:54:08.491Z,85.9
2017-09-04T06:55:09.154Z,86.3
2017-09-04T06:56:09.815Z,85.5
2017-09-04T06:57:10.476Z,86.4
2017-09-04T06:58:11.385Z,85.5
2017-09-04T06:59:12.045Z,85.7
2017-09-04T07:00:12.703Z,85.0
2017-09-04T07:01:13.362Z,85.8
2017-09-04T07:02:14.022Z,83.8
2017-09-04T07:03:14.931Z,83.8
2017-09-04T07:04:15.590Z,83.9
2017-09-04T07:05:16.249Z,83.6
2017-09-04T07:06:16.908Z,83.1
2017-09-04T07:07:17.569Z,82.9
2017-09-04T07:08:18.478Z,83.2
2017-09-04T07:09:19.141Z,83.3
2017-09-04T07:10:19.796Z,83.6
2017-09-04T07:11:20.459Z,83.4
2017-09-04T07:12:21.121Z,81.2
2017-09-04T07:13:22.080Z,81.3
2017-09-04T07:14:22.740Z,82.1
2017-09-04T07:15:23.442Z,81.6
2017-09-04T07:16:24.103Z,81.0
2017-09-04T07:17:24.800Z,80.5
2017-09-04T07:18:25.762Z,80.8
2017-09-04T07:19:26.423Z,80.6
2017-09-04T07:20:27.082Z,80.9
2017-09-04T07:21:27.777Z,80.6
2017-09-04T07:22:28.439Z,80.0
2017-09-04T07:23:29.352Z,80.9
2017-09-04T07:24:30.046Z,81.0
2017-09-04T07:25:30.706Z,81.0
2017-09-04T07:26:31.366Z,79.4
2017-09-04T07:27:32.028Z,79.5
2017-09-04T07:28:32.936Z,79.5
2017-09-04T07:29:33.602Z,79.6
2017-09-04T07:30:34.258Z,79.0
2017-09-04T07:31:34.918Z,78.8
2017-09-04T07:32:35.580Z,79.2
2017-09-04T07:33:36.541Z,79.2
2017-09-04T07:34:37.201Z,78.5
2017-09-04T07:35:37.862Z,78.1
2017-09-04T07:36:38.559Z,77.5
2017-09-04T07:37:39.218Z,77.2
2017-09-04T07:38:40.165Z,77.2
2017-09-04T07:39:40.825Z,76.8
2017-09-04T07:40:41.485Z,76.5
2017-09-04T07:41:42.144Z,76.3
2017-09-04T07:42:42.806Z,76.0
2017-09-04T07:43:43.717Z,76.5
2017-09-04T07:44:44.376Z,75.0
2017-09-04T07:45:45.037Z,75.3
2017-09-04T07:46:45.696Z,75.7
2017-09-04T07:47:46.359Z,76.7
2017-09-04T07:48:47.270Z,76.1
2017-09-04T07:49:47.930Z,74.5
2017-09-04T07:50:48.594Z,75.1
2017-09-04T07:51:49.256Z,73.1
2017-09-04T07:52:49.917Z,73.4
2017-09-04T07:53:50.829Z,73.3
2017-09-04T07:54:51.492Z,73.0
2017-09-04T07:55:52.149Z,72.1
2017-09-04T07:56:52.821Z,71.8
2017-09-04T07:57:53.473Z,72.6
2017-09-04T07:58:54.383Z,72.6
2017-09-04T07:59:55.046Z,71.2
2017-09-04T08:00:55.708Z,70.7
2017-09-04T08:01:56.368Z,69.9
2017-09-04T08:02:57.030Z,68.9
2017-09-04T08:03:57.940Z,70.0
2017-09-04T08:04:58.602Z,69.8
2017-09-04T08:05:59.264Z,69.5
2017-09-04T08:06:59.924Z,71.1
2017-09-04T08:08:00.585Z,69.8
2017-09-04T08:09:01.496Z,68.9
2017-09-04T08:10:02.158Z,68.8
2017-09-04T08:11:02.820Z,68.7
2017-09-04T08:12:03.480Z,67.9
2017-09-04T08:13:04.140Z,68.0
2017-09-04T08:14:05.052Z,66.9
2017-09-04T08:15:05.715Z,66.9
2017-09-04T08:16:06.378Z,66.6
2017-09-04T08:17:07.041Z,67.3
2017-09-04T08:18:07.702Z,66.8
2017-09-04T08:19:08.664Z,67.4
2017-09-04T08:20:09.326Z,67.9
2017-09-04T08:21:09.989Z,67.4
2017-09-04T08:22:10.650Z,67.2
2017-09-04T08:23:11.315Z,66.3
2017-09-04T08:24:12.315Z,67.5
2017-09-04T08:25:12.977Z,65.4
2017-09-04T08:26:13.639Z,63.9
2017-09-04T08:27:14.301Z,63.7
2017-09-04T08:28:14.965Z,64.9
2017-09-04T08:29:15.877Z,63.6
2017-09-04T08:30:16.542Z,62.8
2017-09-04T08:31:17.207Z,63.8
2017-09-04T08:32:17.873Z,62.2
2017-09-04T08:33:18.536Z,61.0
2017-09-04T08:34:19.458Z,61.0
2017-09-04T08:35:20.122Z,58.9
2017-09-04T08:36:20.786Z,58.1
2017-09-04T08:37:21.450Z,55.7
2017-09-04T08:38:22.112Z,55.1
2017-09-04T08:39:23.027Z,56.2
2017-09-04T08:40:23.690Z,57.0
2017-09-04T08:41:24.352Z,57.2
2017-09-04T08:42:25.019Z,56.7
2017-09-04T08:43:25.718Z,56.3
2017-09-04T08:44:26.633Z,55.5
2017-09-04T08:45:27.296Z,55.9
2017-09-04T08:46:27.963Z,55.6
2017-09-04T08:47:28.625Z,53.9
2017-09-04T08:48:29.290Z,53.1
2017-09-04T08:49:30.255Z,55.1
2017-09-04T08:50:30.923Z,52.7
2017-09-04T08:51:31.621Z,50.0
2017-09-04T08:52:32.288Z,50.4
2017-09-04T08:53:32.951Z,51.2
2017-09-04T08:54:33.916Z,51.0
2017-09-04T08:55:34.584Z,50.5
2017-09-04T08:56:35.284Z,51.4
2017-09-04T08:57:35.951Z,49.9
2017-09-04T08:58:36.617Z,50.4
2017-09-04T08:59:37.534Z,50.6
2017-09-04T09:00:38.199Z,49.8
2017-09-04T09:01:38.867Z,50.9
2017-09-04T09:02:39.532Z,50.4
2017-09-04T09:03:40.202Z,50.7
2017-09-04T09:04:41.117Z,51.7
2017-09-04T09:05:41.782Z,50.0
2017-09-04T09:06:42.446Z,50.7
2017-09-04T09:07:43.113Z,50.3
2017-09-04T09:08:43.778Z,50.3
2017-09-04T09:09:44.696Z,48.6
2017-09-04T09:10:45.364Z,48.1
2017-09-04T09:11:46.030Z,46.1
2017-09-04T09:12:46.698Z,45.6
2017-09-04T09:13:47.365Z,46.0
2017-09-04T09:14:48.332Z,45.1
2017-09-04T09:15:49.087Z,46.0
2017-09-04T09:16:49.754Z,43.7
2017-09-04T09:17:50.422Z,44.5
2017-09-04T09:18:51.091Z,44.9
2017-09-04T09:19:52.011Z,42.4
2017-09-04T09:20:52.677Z,42.1
2017-09-04T09:21:53.345Z,42.4
2017-09-04T09:22:54.013Z,41.2
2017-09-04T09:23:54.682Z,41.8
2017-09-04T09:24:55.602Z,41.8
2017-09-04T09:25:56.271Z,41.4
2017-09-04T09:26:56.939Z,40.1
2017-09-04T09:27:57.606Z,41.2
2017-09-04T09:28:58.274Z,40.8
2017-09-04T09:29:59.243Z,38.7
2017-09-04T09:30:59.952Z,38.9
2017-09-04T09:32:00.582Z,39.7
2017-09-04T09:33:01.252Z,39.7
2017-09-04T09:34:01.924Z,39.2
2017-09-04T09:35:02.848Z,39.9
2017-09-04T09:36:03.515Z,39.5
2017-09-04T09:37:04.179Z,38.6
2017-09-04T09:38:04.847Z,40.2
2017-09-04T09:39:05.517Z,39.7
2017-09-04T09:40:06.436Z,37.0
2017-09-04T09:41:07.103Z,36.0
2017-09-04T09:42:07.775Z,37.2
2017-09-04T09:43:08.475Z,37.0
2017-09-04T09:44:09.144Z,34.8
2017-09-04T09:45:10.115Z,36.4
2017-09-04T09:46:10.785Z,35.0
2017-09-04T09:47:11.454Z,33.5
2017-09-04T09:48:12.122Z,33.3
2017-09-04T09:49:12.791Z,33.1
2017-09-04T09:50:13.711Z,32.9
2017-09-04T09:51:14.379Z,32.3
2017-09-04T09:52:15.049Z,33.2
2017-09-04T09:53:15.718Z,31.8
2017-09-04T09:54:16.387Z,32.2
2017-09-04T09:55:17.360Z,29.8
2017-09-04T09:56:18.062Z,30.3
2017-09-04T09:57:18.732Z,30.0
2017-09-04T09:58:19.402Z,29.0
2017-09-04T09:59:20.073Z,28.4
2017-09-04T10:00:21.032Z,29.1
2017-09-04T10:01:21.697Z,29.5
2017-09-04T10:02:22.365Z,30.7
2017-09-04T10:03:23.035Z,31.6
2017-09-04T10:04:23.708Z,30.8
2017-09-04T10:05:24.629Z,31.1
2017-09-04T10:06:25.298Z,31.5
2017-09-04T10:07:25.967Z,30.0
2017-09-04T10:08:26.638Z,29.6
2017-09-04T10:09:27.308Z,28.8
2017-09-04T10:10:28.280Z,28.4
2017-09-04T10:11:28.950Z,28.1
2017-09-04T10:12:29.620Z,28.0
2017-09-04T10:13:30.292Z,27.8
2017-09-04T10:14:30.965Z,28.4
2017-09-04T10:15:31.888Z,28.5
2017-09-04T10:16:32.559Z,28.7
2017-09-04T10:17:33.230Z,27.9
2017-09-04T10:18:33.901Z,29.1
2017-09-04T10:19:34.574Z,29.2
2017-09-04T10:20:35.495Z,28.8
2017-09-04T10:21:36.165Z,28.1
2017-09-04T10:22:36.836Z,27.7
2017-09-04T10:23:37.510Z,28.3
2017-09-04T10:24:38.182Z,28.0
2017-09-04T10:25:39.106Z,27.1
2017-09-04T10:26:39.777Z,26.0
2017-09-04T10:27:40.448Z,25.1
2017-09-04T10:28:41.118Z,26.5
2017-09-04T10:29:41.787Z,25.1
2017-09-04T10:30:42.706Z,25.8
2017-09-04T10:31:43.377Z,26.6
2017-09-04T10:32:44.046Z,26.8
2017-09-04T10:33:44.714Z,28.3
2017-09-04T10:34:45.401Z,29.7
2017-09-04T10:35:46.370Z,29.0
2017-09-04T10:36:47.039Z,27.3
2017-09-04T10:37:47.710Z,26.9
2017-09-04T10:38:48.379Z,26.6
2017-09-04T10:39:49.049Z,26.9
2017-09-04T10:40:49.968Z,25.9
2017-09-04T10:41:50.640Z,24.5
2017-09-04T10:42:51.312Z,22.3
2017-09-04T10:43:51.982Z,24.5
2017-09-04T10:44:52.652Z,23.2
2017-09-04T10:45:53.574Z,23.0
2017-09-04T10:46:54.246Z,21.5
2017-09-04T10:47:54.919Z,21.5
2017-09-04T10:48:55.587Z,21.1
2017-09-04T10:49:56.257Z,22.7
2017-09-04T10:50:57.178Z,25.0
2017-09-04T10:51:57.848Z,25.9
2017-09-04T10:52:58.518Z,24.3
2017-09-04T10:53:59.189Z,26.5
2017-09-04T10:54:59.859Z,25.0
2017-09-04T10:56:00.780Z,22.9
2017-09-04T10:57:01.453Z,23.0
2017-09-04T10:58:02.127Z,22.6
2017-09-04T10:59:02.798Z,21.1
2017-09-04T11:00:03.471Z,20.6
2017-09-04T11:01:04.391Z,20.0
2017-09-04T11:02:05.065Z,19.7
2017-09-04T11:03:05.734Z,19.2
2017-09-04T11:04:06.405Z,18.2
2017-09-04T11:05:07.077Z,17.3
2017-09-04T11:06:08.049Z,17.7
2017-09-04T11:07:08.723Z,17.7
2017-09-04T11:08:09.397Z,17.6
2017-09-04T11:09:10.071Z,17.0
2017-09-04T11:10:10.745Z,16.8
2017-09-04T11:11:11.669Z,16.8
2017-09-04T11:12:12.343Z,17.6
2017-09-04T11:13:13.015Z,17.8
2017-09-04T11:14:13.687Z,16.7
2017-09-04T11:15:14.361Z,15.6
2017-09-04T11:16:15.290Z,15.9
2017-09-04T11:17:15.962Z,16.5
2017-09-04T11:18:16.638Z,15.5
2017-09-04T11:19:17.314Z,15.3
2017-09-04T11:20:17.987Z,14.8
2017-09-04T11:21:18.913Z,14.9
2017-09-04T11:22:19.587Z,15.0
2017-09-04T11:23:20.262Z,15.1
2017-09-04T11:24:20.936Z,16.3
2017-09-04T11:25:21.607Z,14.7
2017-09-04T11:26:22.533Z,14.4
2017-09-04T11:27:23.206Z,16.3
2017-09-04T11:28:23.917Z,14.9
2017-09-04T11:29:24.592Z,14.6
2017-09-04T11:30:25.266Z,14.6
2017-09-04T11:31:26.190Z,14.5
2017-09-04T11:32:26.866Z,14.6
2017-09-04T11:33:27.541Z,13.7
2017-09-04T11:34:28.251Z,14.2
2017-09-04T11:35:28.927Z,14.5
2017-09-04T11:36:29.853Z,14.3
2017-09-04T11:37:30.529Z,14.0
2017-09-04T11:38:31.203Z,14.5
2017-09-04T11:39:31.878Z,13.7
2017-09-04T11:40:32.555Z,12.8
2017-09-04T11:41:33.527Z,12.4
2017-09-04T11:42:34.202Z,13.0
2017-09-04T11:43:34.877Z,13.8
2017-09-04T11:44:35.549Z,14.3
2017-09-04T11:45:36.225Z,14.4
2017-09-04T11:46:37.150Z,14.2
2017-09-04T11:47:37.827Z,14.4
2017-09-04T11:48:38.501Z,14.8
2017-09-04T11:49:39.175Z,14.4
2017-09-04T11:50:39.850Z,13.2
2017-09-04T11:51:40.776Z,13.7
2017-09-04T11:52:41.451Z,11.8
2017-09-04T11:53:42.124Z,11.1
2017-09-04T11:54:42.800Z,11.0
2017-09-04T11:55:43.476Z,10.5
2017-09-04T11:56:44.409Z,11.7
2017-09-04T11:57:45.076Z,10.8
2017-09-04T11:58:45.750Z,11.5
2017-09-04T11:59:46.426Z,11.4
2017-09-04T12:00:47.100Z,11.6
2017-09-04T12:01:48.076Z,14.8
2017-09-04T12:02:48.748Z,15.5
2017-09-04T12:03:49.423Z,14.7
2017-09-04T12:04:50.098Z,14.2
2017-09-04T12:05:50.771Z,14.6
2017-09-04T12:06:51.744Z,14.8
2017-09-04T12:07:52.422Z,13.0
2017-09-04T12:08:53.090Z,13.2
2017-09-04T12:09:53.763Z,12.0
2017-09-04T12:10:54.437Z,11.9
2017-09-04T12:11:55.447Z,11.7
2017-09-04T12:12:56.120Z,11.8
2017-09-04T12:13:56.794Z,12.2
2017-09-04T12:14:57.471Z,11.4
2017-09-04T12:15:58.145Z,11.0
2017-09-04T12:16:59.073Z,10.9
2017-09-04T12:17:59.744Z,11.4
2017-09-04T12:19:00.426Z,11.1
2017-09-04T12:20:01.090Z,11.3
2017-09-04T12:21:01.764Z,10.3
2017-09-04T12:22:02.740Z,11.1
2017-09-04T12:23:03.424Z,10.6
2017-09-04T12:24:04.098Z,10.1
2017-09-04T12:25:04.772Z,10.6
2017-09-04T12:26:05.445Z,9.8
2017-09-04T12:27:06.420Z,8.6
2017-09-04T12:28:07.092Z,10.2
2017-09-04T12:29:07.765Z,9.7
2017-09-04T12:30:08.441Z,9.8
2017-09-04T12:31:09.117Z,10.4
2017-09-04T12:32:10.043Z,10.1
2017-09-04T12:33:10.720Z,8.9
2017-09-04T12:34:11.425Z,8.9
2017-09-04T12:35:12.099Z,8.9
2017-09-04T12:36:12.773Z,8.6
2017-09-04T12:37:13.698Z,10.0
2017-09-04T12:38:14.372Z,10.1
2017-09-04T12:39:15.046Z,9.2
2017-09-04T12:40:15.718Z,9.4
2017-09-04T12:41:16.391Z,9.0
2017-09-04T12:42:17.324Z,10.0
2017-09-04T12:43:17.993Z,10.1
2017-09-04T12:44:18.670Z,10.3
2017-09-04T12:45:19.344Z,9.6
2017-09-04T12:46:20.019Z,8.9
2017-09-04T12:47:20.943Z,9.7
2017-09-04T12:48:21.617Z,8.8
2017-09-04T12:49:22.296Z,8.8
2017-09-04T12:50:22.998Z,8.2
2017-09-04T12:51:23.639Z,8.5
2017-09-04T12:52:24.563Z,7.8
2017-09-04T12:53:25.236Z,7.5
2017-09-04T12:54:25.909Z,8.2
2017-09-04T12:55:26.581Z,8.2
2017-09-04T12:56:27.255Z,8.5
2017-09-04T12:57:28.230Z,8.2
2017-09-04T12:58:28.902Z,9.2
2017-09-04T12:59:29.578Z,10.7
2017-09-04T13:00:30.252Z,10.7
2017-09-04T13:01:30.924Z,12.4
2017-09-04T13:02:31.851Z,12.8
2017-09-04T13:03:32.523Z,11.1
2017-09-04T13:04:33.198Z,11.3
2017-09-04T13:05:33.872Z,9.3
2017-09-04T13:06:34.545Z,8.6
2017-09-04T13:07:35.473Z,8.3
2017-09-04T13:08:36.144Z,8.5
2017-09-04T13:09:36.818Z,8.9
2017-09-04T13:10:37.493Z,8.9
2017-09-04T13:11:38.163Z,8.7
2017-09-04T13:12:39.086Z,8.2
2017-09-04T13:13:39.759Z,7.7
2017-09-04T13:14:40.432Z,8.4
2017-09-04T13:15:41.105Z,7.0
2017-09-04T13:16:41.780Z,8.2
2017-09-04T13:17:42.705Z,8.6
2017-09-04T13:18:43.378Z,8.2
2017-09-04T13:19:44.051Z,6.4
2017-09-04T13:20:44.726Z,7.6
2017-09-04T13:21:45.400Z,6.3
2017-09-04T13:22:46.323Z,6.2
2017-09-04T13:23:46.999Z,6.1
2017-09-04T13:24:47.682Z,6.1
2017-09-04T13:25:48.358Z,6.5